ASN logo
ASN Wikibase Occurrence # 185058
Last updated: 20 February 2021
This information is added by users of ASN. Neither ASN nor the Flight Safety Foundation are responsible for the completeness or correctness of this information. If you feel this information is incomplete or incorrect, you can submit corrected information.

Date:01-MAR-2016
Time:12:06 LT
Type:Silhouette image of generic E55P model; specific model in this crash may look slightly different
Embraer EMB-505 Phenom 300
Owner/operator:NetJets
Registration: N358QS
C/n / msn: 50500250
Fatalities:Fatalities: 0 / Occupants: 2
Other fatalities:0
Aircraft damage: Minor
Location:Chicago-O'Hare International Airport, IL (ORD/KORD) -   United States of America
Phase: Landing
Nature:Ferry/positioning
Departure airport:Chicago-O'Hare International Airport, IL (ORD/KORD)
Destination airport:Chicago-Executive Airport, IL (PWK/KPWK)
Narrative:
An Embraer EMB-505 Phenom 300 corporate jet suffered a runway excursion after landing on runway 09L at Chicago-O'Hare International Airport, Illinois, USA.

The aircraft sustained minor damage that included damage to the wing leading edges. The pilot and copilot were uninjured. Two following flights aborted their approach to runway 09L.

NetJets flight 358 departed O'Hare at 11:37 hours local time, bound for nearby Chicago-Executive Airport. A missed approach was flown there and the airplane returned to O'Hare.

Weather reported about the time of the incident (12:02 LT / 18:02 Z):
KORD 011755Z 35019KT 3/4SM R10L/2800V5000FT -SN BR BKN010 OVC016 M03/M04 A2978 RMK AO2 P0000 T10331044
KORD 011811Z 36019G26KT 1SM R10L/2600VP6000FT -SN BR BKN010 OVC017 M03/M05 A2978 RMK AO2 PK WND 01026/1756 P0000 T10331050

Sources:

https://www.nbcchicago.com/traffic/transit/Corporate-Jet-Slides-Off-Runway-at-OHare-Airport-Fire-Officials-370680071.html?_osource=SocialFlowTwt_CHBrand
http://wgntv.com/2016/03/01/executive-jet-slides-off-runway-at-ohare-airpot/
https://flightaware.com/live/flight/EJA358
https://flightaware.com/live/flight/N358QS/history
https://www.ntsb.gov/_layouts/ntsb.aviation/brief.aspx?ev_id=20160302X15500&key=1

Media:


Images:


Revision history:

Date/timeContributorUpdates
01-Mar-2016 19:22 harro Added
01-Mar-2016 19:27 harro Updated [Operator, Departure airport, Destination airport, Source, Narrative]
01-Mar-2016 19:32 harro Updated [Registration, Cn, Source, Photo, ]
01-Mar-2016 19:59 harro Updated [Aircraft type, Registration, Damage, Narrative]
01-Mar-2016 20:09 harro Updated [Embed code]
13-Mar-2016 20:34 Aerossurance Updated [Time, Nature, Source, Embed code, Damage, Narrative]

Corrections or additions? ... Edit this accident description